sensor_id;sensor_type;location;lat;lon;timestamp;P1;durP1;ratioP1;P2;durP2;ratioP2
69417;SDS011;56610;48.872;2.400;2023-09-30T00:01:08;6.70;;;2.95;;
69417;SDS011;56610;48.872;2.400;2023-09-30T00:03:35;6.43;;;3.00;;
69417;SDS011;56610;48.872;2.400;2023-09-30T00:06:01;6.68;;;3.08;;
69417;SDS011;56610;48.872;2.400;2023-09-30T00:08:26;8.02;;;3.30;;
69417;SDS011;56610;48.872;2.400;2023-09-30T00:10:52;7.03;;;3.20;;
69417;SDS011;56610;48.872;2.400;2023-09-30T00:13:19;9.57;;;3.35;;
69417;SDS011;56610;48.872;2.400;2023-09-30T00:15:44;6.50;;;3.00;;
69417;SDS011;56610;48.872;2.400;2023-09-30T00:18:10;6.45;;;2.75;;
69417;SDS011;56610;48.872;2.400;2023-09-30T00:20:36;6.90;;;2.95;;
69417;SDS011;56610;48.872;2.400;2023-09-30T00:23:01;8.40;;;3.60;;
69417;SDS011;56610;48.872;2.400;2023-09-30T00:25:27;8.07;;;3.25;;
69417;SDS011;56610;48.872;2.400;2023-09-30T00:27:52;10.23;;;3.97;;
69417;SDS011;56610;48.872;2.400;2023-09-30T00:30:18;7.85;;;3.17;;
69417;SDS011;56610;48.872;2.400;2023-09-30T00:32:44;8.20;;;3.60;;
69417;SDS011;56610;48.872;2.400;2023-09-30T00:35:09;8.00;;;3.78;;
69417;SDS011;56610;48.872;2.400;2023-09-30T00:37:39;7.70;;;3.40;;
69417;SDS011;56610;48.872;2.400;2023-09-30T00:40:06;6.47;;;2.95;;
69417;SDS011;56610;48.872;2.400;2023-09-30T00:42:37;7.97;;;3.75;;
69417;SDS011;56610;48.872;2.400;2023-09-30T00:45:03;10.88;;;3.38;;
69417;SDS011;56610;48.872;2.400;2023-09-30T00:47:30;7.72;;;3.85;;
69417;SDS011;56610;48.872;2.400;2023-09-30T00:49:56;6.30;;;3.40;;
69417;SDS011;56610;48.872;2.400;2023-09-30T00:52:22;8.25;;;3.53;;
69417;SDS011;56610;48.872;2.400;2023-09-30T00:54:48;8.30;;;3.78;;
69417;SDS011;56610;48.872;2.400;2023-09-30T00:57:15;7.47;;;3.58;;
69417;SDS011;56610;48.872;2.400;2023-09-30T00:59:43;7.45;;;3.38;;
69417;SDS011;56610;48.872;2.400;2023-09-30T01:02:09;11.18;;;3.80;;
69417;SDS011;56610;48.872;2.400;2023-09-30T01:04:34;8.15;;;3.30;;
69417;SDS011;56610;48.872;2.400;2023-09-30T01:07:01;9.32;;;3.58;;
69417;SDS011;56610;48.872;2.400;2023-09-30T01:09:27;8.23;;;3.58;;
69417;SDS011;56610;48.872;2.400;2023-09-30T01:11:53;9.32;;;3.72;;
69417;SDS011;56610;48.872;2.400;2023-09-30T01:14:28;9.25;;;3.70;;
69417;SDS011;56610;48.872;2.400;2023-09-30T01:16:55;9.35;;;3.85;;
69417;SDS011;56610;48.872;2.400;2023-09-30T01:19:21;7.25;;;3.92;;
69417;SDS011;56610;48.872;2.400;2023-09-30T01:21:53;7.97;;;3.50;;
69417;SDS011;56610;48.872;2.400;2023-09-30T01:24:21;10.90;;;4.55;;
69417;SDS011;56610;48.872;2.400;2023-09-30T01:26:47;6.47;;;3.90;;
69417;SDS011;56610;48.872;2.400;2023-09-30T01:29:13;10.35;;;3.25;;
69417;SDS011;56610;48.872;2.400;2023-09-30T01:31:39;6.70;;;3.53;;
69417;SDS011;56610;48.872;2.400;2023-09-30T01:34:04;7.47;;;3.53;;
69417;SDS011;56610;48.872;2.400;2023-09-30T01:36:30;8.38;;;3.63;;
69417;SDS011;56610;48.872;2.400;2023-09-30T01:38:56;8.43;;;3.80;;
69417;SDS011;56610;48.872;2.400;2023-09-30T01:41:22;7.53;;;3.72;;
69417;SDS011;56610;48.872;2.400;2023-09-30T01:43:48;7.30;;;3.08;;
69417;SDS011;56610;48.872;2.400;2023-09-30T01:46:14;11.25;;;4.03;;
69417;SDS011;56610;48.872;2.400;2023-09-30T01:48:39;8.93;;;3.88;;
69417;SDS011;56610;48.872;2.400;2023-09-30T01:51:05;7.63;;;3.28;;
69417;SDS011;56610;48.872;2.400;2023-09-30T01:53:31;8.05;;;3.60;;
69417;SDS011;56610;48.872;2.400;2023-09-30T01:55:57;7.15;;;3.60;;
69417;SDS011;56610;48.872;2.400;2023-09-30T01:58:23;8.57;;;4.35;;
69417;SDS011;56610;48.872;2.400;2023-09-30T02:00:50;6.30;;;3.53;;
69417;SDS011;56610;48.872;2.400;2023-09-30T02:03:16;5.97;;;3.15;;
69417;SDS011;56610;48.872;2.400;2023-09-30T02:05:42;7.15;;;3.17;;
69417;SDS011;56610;48.872;2.400;2023-09-30T02:08:08;7.00;;;3.38;;
69417;SDS011;56610;48.872;2.400;2023-09-30T02:10:34;6.00;;;3.50;;
69417;SDS011;56610;48.872;2.400;2023-09-30T02:13:00;7.60;;;3.80;;
69417;SDS011;56610;48.872;2.400;2023-09-30T02:15:26;6.95;;;3.78;;
69417;SDS011;56610;48.872;2.400;2023-09-30T02:17:52;8.57;;;4.22;;
69417;SDS011;56610;48.872;2.400;2023-09-30T02:20:18;8.55;;;4.05;;
69417;SDS011;56610;48.872;2.400;2023-09-30T02:22:50;9.23;;;4.15;;
69417;SDS011;56610;48.872;2.400;2023-09-30T02:25:17;8.02;;;4.05;;
69417;SDS011;56610;48.872;2.400;2023-09-30T02:27:43;6.10;;;3.30;;
69417;SDS011;56610;48.872;2.400;2023-09-30T02:30:10;6.23;;;3.63;;
69417;SDS011;56610;48.872;2.400;2023-09-30T02:32:39;7.10;;;3.53;;
69417;SDS011;56610;48.872;2.400;2023-09-30T02:35:06;8.30;;;3.70;;
69417;SDS011;56610;48.872;2.400;2023-09-30T02:37:35;8.55;;;3.63;;
69417;SDS011;56610;48.872;2.400;2023-09-30T02:40:04;9.57;;;4.07;;
69417;SDS011;56610;48.872;2.400;2023-09-30T02:42:35;8.02;;;3.90;;
69417;SDS011;56610;48.872;2.400;2023-09-30T02:45:02;8.43;;;3.95;;
69417;SDS011;56610;48.872;2.400;2023-09-30T02:47:29;7.55;;;3.78;;
69417;SDS011;56610;48.872;2.400;2023-09-30T02:49:56;7.82;;;3.75;;
69417;SDS011;56610;48.872;2.400;2023-09-30T02:52:22;6.82;;;3.15;;
69417;SDS011;56610;48.872;2.400;2023-09-30T02:54:48;7.68;;;3.60;;
69417;SDS011;56610;48.872;2.400;2023-09-30T02:57:14;8.90;;;3.72;;
69417;SDS011;56610;48.872;2.400;2023-09-30T02:59:40;8.50;;;3.55;;
69417;SDS011;56610;48.872;2.400;2023-09-30T03:05:16;7.40;;;3.88;;
69417;SDS011;56610;48.872;2.400;2023-09-30T03:07:42;6.28;;;3.38;;
69417;SDS011;56610;48.872;2.400;2023-09-30T03:10:08;6.95;;;3.83;;
69417;SDS011;56610;48.872;2.400;2023-09-30T03:12:35;9.23;;;3.92;;
69417;SDS011;56610;48.872;2.400;2023-09-30T03:15:00;7.40;;;3.92;;
69417;SDS011;56610;48.872;2.400;2023-09-30T03:17:29;6.30;;;3.60;;
69417;SDS011;56610;48.872;2.400;2023-09-30T03:19:55;8.40;;;3.53;;
69417;SDS011;56610;48.872;2.400;2023-09-30T03:22:22;11.85;;;3.95;;
69417;SDS011;56610;48.872;2.400;2023-09-30T03:24:48;7.35;;;3.58;;
69417;SDS011;56610;48.872;2.400;2023-09-30T03:27:13;9.35;;;4.10;;
69417;SDS011;56610;48.872;2.400;2023-09-30T03:29:40;7.47;;;3.55;;
69417;SDS011;56610;48.872;2.400;2023-09-30T03:32:06;6.63;;;3.45;;
69417;SDS011;56610;48.872;2.400;2023-09-30T03:34:32;7.50;;;3.58;;
69417;SDS011;56610;48.872;2.400;2023-09-30T03:37:01;6.82;;;3.38;;
69417;SDS011;56610;48.872;2.400;2023-09-30T03:39:27;7.05;;;3.67;;
69417;SDS011;56610;48.872;2.400;2023-09-30T03:41:56;6.75;;;3.67;;
69417;SDS011;56610;48.872;2.400;2023-09-30T03:44:23;8.27;;;3.83;;
69417;SDS011;56610;48.872;2.400;2023-09-30T03:46:50;9.00;;;4.13;;
69417;SDS011;56610;48.872;2.400;2023-09-30T03:51:44;9.45;;;4.20;;
69417;SDS011;56610;48.872;2.400;2023-09-30T03:54:10;8.13;;;4.50;;
69417;SDS011;56610;48.872;2.400;2023-09-30T03:56:36;9.57;;;4.00;;
69417;SDS011;56610;48.872;2.400;2023-09-30T03:59:03;6.70;;;3.58;;
69417;SDS011;56610;48.872;2.400;2023-09-30T04:01:29;9.40;;;4.72;;
69417;SDS011;56610;48.872;2.400;2023-09-30T04:03:56;9.38;;;4.45;;
69417;SDS011;56610;48.872;2.400;2023-09-30T04:06:21;8.20;;;4.28;;
69417;SDS011;56610;48.872;2.400;2023-09-30T04:08:47;8.48;;;3.60;;
69417;SDS011;56610;48.872;2.400;2023-09-30T04:11:13;7.45;;;3.72;;
69417;SDS011;56610;48.872;2.400;2023-09-30T04:13:43;8.43;;;4.10;;
69417;SDS011;56610;48.872;2.400;2023-09-30T04:16:10;9.13;;;4.25;;
69417;SDS011;56610;48.872;2.400;2023-09-30T04:18:35;7.88;;;3.90;;
69417;SDS011;56610;48.872;2.400;2023-09-30T04:21:01;8.93;;;3.75;;
69417;SDS011;56610;48.872;2.400;2023-09-30T04:23:29;10.27;;;3.92;;
69417;SDS011;56610;48.872;2.400;2023-09-30T04:25:55;8.00;;;3.53;;
69417;SDS011;56610;48.872;2.400;2023-09-30T04:28:21;9.35;;;3.70;;
69417;SDS011;56610;48.872;2.400;2023-09-30T04:30:50;7.68;;;3.70;;
69417;SDS011;56610;48.872;2.400;2023-09-30T04:33:16;6.95;;;3.33;;
69417;SDS011;56610;48.872;2.400;2023-09-30T04:35:45;6.32;;;3.40;;
69417;SDS011;56610;48.872;2.400;2023-09-30T04:38:12;9.50;;;3.80;;
69417;SDS011;56610;48.872;2.400;2023-09-30T04:40:38;9.63;;;3.83;;
69417;SDS011;56610;48.872;2.400;2023-09-30T04:43:04;7.50;;;3.83;;
69417;SDS011;56610;48.872;2.400;2023-09-30T04:45:30;7.30;;;3.45;;
69417;SDS011;56610;48.872;2.400;2023-09-30T04:47:56;8.50;;;3.30;;
69417;SDS011;56610;48.872;2.400;2023-09-30T04:50:22;7.68;;;3.60;;
69417;SDS011;56610;48.872;2.400;2023-09-30T04:52:48;8.07;;;3.88;;
69417;SDS011;56610;48.872;2.400;2023-09-30T04:55:14;8.27;;;3.42;;
69417;SDS011;56610;48.872;2.400;2023-09-30T04:57:44;9.90;;;3.53;;
69417;SDS011;56610;48.872;2.400;2023-09-30T05:00:20;8.18;;;3.50;;
69417;SDS011;56610;48.872;2.400;2023-09-30T05:02:50;7.72;;;3.78;;
69417;SDS011;56610;48.872;2.400;2023-09-30T05:05:17;10.25;;;3.38;;
69417;SDS011;56610;48.872;2.400;2023-09-30T05:07:43;8.57;;;3.47;;
69417;SDS011;56610;48.872;2.400;2023-09-30T05:10:11;9.13;;;3.75;;
69417;SDS011;56610;48.872;2.400;2023-09-30T05:12:40;9.60;;;3.67;;
69417;SDS011;56610;48.872;2.400;2023-09-30T05:15:12;8.35;;;3.28;;
69417;SDS011;56610;48.872;2.400;2023-09-30T05:17:40;8.93;;;3.63;;
69417;SDS011;56610;48.872;2.400;2023-09-30T05:20:08;6.45;;;3.05;;
69417;SDS011;56610;48.872;2.400;2023-09-30T05:22:40;10.18;;;3.85;;
69417;SDS011;56610;48.872;2.400;2023-09-30T05:25:10;7.05;;;3.17;;
69417;SDS011;56610;48.872;2.400;2023-09-30T05:27:36;8.13;;;3.72;;
69417;SDS011;56610;48.872;2.400;2023-09-30T05:30:02;8.65;;;3.33;;
69417;SDS011;56610;48.872;2.400;2023-09-30T05:32:29;8.35;;;3.67;;
69417;SDS011;56610;48.872;2.400;2023-09-30T05:34:55;6.68;;;3.40;;
69417;SDS011;56610;48.872;2.400;2023-09-30T05:37:22;9.87;;;3.63;;
69417;SDS011;56610;48.872;2.400;2023-09-30T05:39:48;9.35;;;3.58;;
69417;SDS011;56610;48.872;2.400;2023-09-30T05:42:15;9.23;;;3.97;;
69417;SDS011;56610;48.872;2.400;2023-09-30T05:44:41;7.53;;;3.85;;
69417;SDS011;56610;48.872;2.400;2023-09-30T05:47:08;7.15;;;4.13;;
69417;SDS011;56610;48.872;2.400;2023-09-30T05:49:34;9.60;;;4.50;;
69417;SDS011;56610;48.872;2.400;2023-09-30T05:52:01;10.90;;;4.50;;
69417;SDS011;56610;48.872;2.400;2023-09-30T05:54:27;8.45;;;4.95;;
69417;SDS011;56610;48.872;2.400;2023-09-30T05:56:53;9.77;;;4.70;;
69417;SDS011;56610;48.872;2.400;2023-09-30T05:59:19;9.00;;;5.32;;
69417;SDS011;56610;48.872;2.400;2023-09-30T06:01:45;8.90;;;4.70;;
69417;SDS011;56610;48.872;2.400;2023-09-30T06:04:11;9.82;;;4.65;;
69417;SDS011;56610;48.872;2.400;2023-09-30T06:06:37;9.25;;;4.68;;
69417;SDS011;56610;48.872;2.400;2023-09-30T06:09:03;10.68;;;4.80;;
69417;SDS011;56610;48.872;2.400;2023-09-30T06:11:32;9.05;;;3.97;;
69417;SDS011;56610;48.872;2.400;2023-09-30T06:13:58;11.60;;;4.13;;
69417;SDS011;56610;48.872;2.400;2023-09-30T06:16:25;7.03;;;3.87;;
69417;SDS011;56610;48.872;2.400;2023-09-30T06:18:52;9.82;;;3.80;;
69417;SDS011;56610;48.872;2.400;2023-09-30T06:21:18;7.20;;;3.35;;
69417;SDS011;56610;48.872;2.400;2023-09-30T06:23:47;11.60;;;4.30;;
69417;SDS011;56610;48.872;2.400;2023-09-30T06:26:13;9.15;;;4.15;;
69417;SDS011;56610;48.872;2.400;2023-09-30T06:28:41;8.50;;;4.10;;
69417;SDS011;56610;48.872;2.400;2023-09-30T06:31:07;8.15;;;3.47;;
69417;SDS011;56610;48.872;2.400;2023-09-30T06:33:34;8.90;;;3.47;;
69417;SDS011;56610;48.872;2.400;2023-09-30T06:36:01;10.05;;;3.78;;
69417;SDS011;56610;48.872;2.400;2023-09-30T06:38:27;11.52;;;3.90;;
69417;SDS011;56610;48.872;2.400;2023-09-30T06:40:52;8.90;;;4.07;;
69417;SDS011;56610;48.872;2.400;2023-09-30T06:43:19;9.93;;;4.45;;
69417;SDS011;56610;48.872;2.400;2023-09-30T06:45:45;9.63;;;4.97;;
69417;SDS011;56610;48.872;2.400;2023-09-30T06:48:11;8.52;;;4.35;;
69417;SDS011;56610;48.872;2.400;2023-09-30T06:50:44;10.13;;;4.75;;
69417;SDS011;56610;48.872;2.400;2023-09-30T06:53:15;10.33;;;4.47;;
69417;SDS011;56610;48.872;2.400;2023-09-30T06:55:42;8.40;;;4.32;;
69417;SDS011;56610;48.872;2.400;2023-09-30T06:58:11;10.75;;;4.35;;
69417;SDS011;56610;48.872;2.400;2023-09-30T07:00:37;8.30;;;3.85;;
69417;SDS011;56610;48.872;2.400;2023-09-30T07:03:03;8.35;;;3.90;;
69417;SDS011;56610;48.872;2.400;2023-09-30T07:05:29;8.38;;;3.75;;
69417;SDS011;56610;48.872;2.400;2023-09-30T07:07:55;7.40;;;3.70;;
69417;SDS011;56610;48.872;2.400;2023-09-30T07:10:21;9.52;;;3.97;;
69417;SDS011;56610;48.872;2.400;2023-09-30T07:12:47;7.80;;;3.78;;
69417;SDS011;56610;48.872;2.400;2023-09-30T07:15:12;9.25;;;3.78;;
69417;SDS011;56610;48.872;2.400;2023-09-30T07:17:39;8.40;;;3.90;;
69417;SDS011;56610;48.872;2.400;2023-09-30T07:20:05;8.05;;;3.88;;
69417;SDS011;56610;48.872;2.400;2023-09-30T07:22:32;10.75;;;4.05;;
69417;SDS011;56610;48.872;2.400;2023-09-30T07:24:59;9.25;;;3.90;;
69417;SDS011;56610;48.872;2.400;2023-09-30T07:27:24;8.60;;;3.95;;
69417;SDS011;56610;48.872;2.400;2023-09-30T07:29:50;11.40;;;4.05;;
69417;SDS011;56610;48.872;2.400;2023-09-30T07:32:16;10.10;;;4.13;;
69417;SDS011;56610;48.872;2.400;2023-09-30T07:34:42;13.35;;;4.13;;
69417;SDS011;56610;48.872;2.400;2023-09-30T07:37:07;9.43;;;4.32;;
69417;SDS011;56610;48.872;2.400;2023-09-30T07:39:33;9.65;;;4.40;;
69417;SDS011;56610;48.872;2.400;2023-09-30T07:41:59;9.55;;;3.70;;
69417;SDS011;56610;48.872;2.400;2023-09-30T07:44:26;10.20;;;4.60;;
69417;SDS011;56610;48.872;2.400;2023-09-30T07:46:51;10.95;;;4.30;;
69417;SDS011;56610;48.872;2.400;2023-09-30T07:49:17;8.50;;;3.85;;
69417;SDS011;56610;48.872;2.400;2023-09-30T07:51:43;9.52;;;4.07;;
69417;SDS011;56610;48.872;2.400;2023-09-30T07:56:37;11.68;;;3.88;;
69417;SDS011;56610;48.872;2.400;2023-09-30T07:59:02;21.45;;;4.50;;
69417;SDS011;56610;48.872;2.400;2023-09-30T08:01:28;13.43;;;4.70;;
69417;SDS011;56610;48.872;2.400;2023-09-30T08:03:55;10.00;;;3.90;;
69417;SDS011;56610;48.872;2.400;2023-09-30T08:06:21;8.77;;;3.75;;
69417;SDS011;56610;48.872;2.400;2023-09-30T08:08:46;10.68;;;3.40;;
69417;SDS011;56610;48.872;2.400;2023-09-30T08:11:12;8.05;;;3.20;;
69417;SDS011;56610;48.872;2.400;2023-09-30T08:13:38;18.73;;;4.50;;
69417;SDS011;56610;48.872;2.400;2023-09-30T08:16:04;8.32;;;3.70;;
69417;SDS011;56610;48.872;2.400;2023-09-30T08:18:29;19.05;;;4.40;;
69417;SDS011;56610;48.872;2.400;2023-09-30T08:20:55;11.20;;;4.10;;
69417;SDS011;56610;48.872;2.400;2023-09-30T08:23:21;10.25;;;3.70;;
69417;SDS011;56610;48.872;2.400;2023-09-30T08:25:46;14.18;;;4.00;;
69417;SDS011;56610;48.872;2.400;2023-09-30T08:28:12;13.27;;;4.07;;
69417;SDS011;56610;48.872;2.400;2023-09-30T08:30:38;10.93;;;3.22;;
69417;SDS011;56610;48.872;2.400;2023-09-30T08:33:03;17.08;;;4.07;;
69417;SDS011;56610;48.872;2.400;2023-09-30T08:35:30;11.00;;;3.63;;
69417;SDS011;56610;48.872;2.400;2023-09-30T08:38:00;9.40;;;3.63;;
69417;SDS011;56610;48.872;2.400;2023-09-30T08:40:27;19.80;;;4.70;;
69417;SDS011;56610;48.872;2.400;2023-09-30T08:42:53;20.02;;;4.53;;
69417;SDS011;56610;48.872;2.400;2023-09-30T08:45:19;14.70;;;3.90;;
69417;SDS011;56610;48.872;2.400;2023-09-30T08:47:45;14.18;;;3.80;;
69417;SDS011;56610;48.872;2.400;2023-09-30T08:50:15;17.00;;;4.53;;
69417;SDS011;56610;48.872;2.400;2023-09-30T08:52:42;11.15;;;3.60;;
69417;SDS011;56610;48.872;2.400;2023-09-30T08:55:09;20.48;;;4.50;;
69417;SDS011;56610;48.872;2.400;2023-09-30T08:57:42;10.45;;;3.70;;
69417;SDS011;56610;48.872;2.400;2023-09-30T09:00:08;8.38;;;3.13;;
69417;SDS011;56610;48.872;2.400;2023-09-30T09:02:38;31.02;;;5.15;;
69417;SDS011;56610;48.872;2.400;2023-09-30T09:05:08;10.13;;;3.03;;
69417;SDS011;56610;48.872;2.400;2023-09-30T09:07:34;10.23;;;3.15;;
69417;SDS011;56610;48.872;2.400;2023-09-30T09:10:03;9.70;;;3.72;;
69417;SDS011;56610;48.872;2.400;2023-09-30T09:12:33;12.25;;;3.42;;
69417;SDS011;56610;48.872;2.400;2023-09-30T09:15:00;13.20;;;3.53;;
69417;SDS011;56610;48.872;2.400;2023-09-30T09:17:42;7.65;;;3.17;;
69417;SDS011;56610;48.872;2.400;2023-09-30T09:20:10;14.02;;;3.90;;
69417;SDS011;56610;48.872;2.400;2023-09-30T09:22:38;14.10;;;3.90;;
69417;SDS011;56610;48.872;2.400;2023-09-30T09:25:08;14.02;;;4.15;;
69417;SDS011;56610;48.872;2.400;2023-09-30T09:27:34;35.42;;;5.50;;
69417;SDS011;56610;48.872;2.400;2023-09-30T09:30:46;11.95;;;3.90;;
69417;SDS011;56610;48.872;2.400;2023-09-30T09:35:19;9.27;;;3.78;;
69417;SDS011;56610;48.872;2.400;2023-09-30T09:37:57;6.15;;;3.28;;
69417;SDS011;56610;48.872;2.400;2023-09-30T09:40:27;8.75;;;4.15;;
69417;SDS011;56610;48.872;2.400;2023-09-30T09:42:54;14.50;;;4.43;;
69417;SDS011;56610;48.872;2.400;2023-09-30T09:45:21;14.40;;;5.00;;
69417;SDS011;56610;48.872;2.400;2023-09-30T09:47:48;15.00;;;4.63;;
69417;SDS011;56610;48.872;2.400;2023-09-30T09:50:14;8.18;;;3.72;;
69417;SDS011;56610;48.872;2.400;2023-09-30T09:52:41;9.60;;;3.42;;
69417;SDS011;56610;48.872;2.400;2023-09-30T09:55:10;7.47;;;3.35;;
69417;SDS011;56610;48.872;2.400;2023-09-30T09:57:37;6.43;;;3.63;;
69417;SDS011;56610;48.872;2.400;2023-09-30T10:00:04;19.13;;;4.53;;
69417;SDS011;56610;48.872;2.400;2023-09-30T10:02:39;7.22;;;3.60;;
69417;SDS011;56610;48.872;2.400;2023-09-30T10:05:08;8.32;;;3.85;;
69417;SDS011;56610;48.872;2.400;2023-09-30T10:07:37;8.93;;;4.50;;
69417;SDS011;56610;48.872;2.400;2023-09-30T10:10:10;7.30;;;3.70;;
69417;SDS011;56610;48.872;2.400;2023-09-30T10:12:38;12.27;;;4.15;;
69417;SDS011;56610;48.872;2.400;2023-09-30T10:18:02;13.88;;;4.80;;
69417;SDS011;56610;48.872;2.400;2023-09-30T10:20:33;8.93;;;4.05;;
69417;SDS011;56610;48.872;2.400;2023-09-30T10:25:44;8.73;;;3.83;;
69417;SDS011;56610;48.872;2.400;2023-09-30T10:33:34;11.75;;;4.35;;
69417;SDS011;56610;48.872;2.400;2023-09-30T10:35:59;8.13;;;4.30;;
69417;SDS011;56610;48.872;2.400;2023-09-30T10:41:00;9.48;;;4.30;;
69417;SDS011;56610;48.872;2.400;2023-09-30T10:43:30;8.40;;;4.72;;
69417;SDS011;56610;48.872;2.400;2023-09-30T10:46:00;8.13;;;4.30;;
69417;SDS011;56610;48.872;2.400;2023-09-30T10:51:20;7.68;;;4.00;;
69417;SDS011;56610;48.872;2.400;2023-09-30T10:53:49;18.38;;;5.55;;
69417;SDS011;56610;48.872;2.400;2023-09-30T10:56:22;10.25;;;4.72;;
69417;SDS011;56610;48.872;2.400;2023-09-30T10:58:49;10.15;;;4.63;;
69417;SDS011;56610;48.872;2.400;2023-09-30T11:01:22;8.77;;;5.00;;
69417;SDS011;56610;48.872;2.400;2023-09-30T11:03:49;9.30;;;4.78;;
69417;SDS011;56610;48.872;2.400;2023-09-30T11:06:22;9.63;;;5.90;;
69417;SDS011;56610;48.872;2.400;2023-09-30T11:08:51;7.60;;;4.90;;
69417;SDS011;56610;48.872;2.400;2023-09-30T11:11:19;8.40;;;5.45;;
69417;SDS011;56610;48.872;2.400;2023-09-30T11:13:44;10.07;;;5.20;;
69417;SDS011;56610;48.872;2.400;2023-09-30T11:16:10;7.82;;;5.13;;
69417;SDS011;56610;48.872;2.400;2023-09-30T11:18:36;10.13;;;6.03;;
69417;SDS011;56610;48.872;2.400;2023-09-30T11:23:31;23.73;;;7.07;;
69417;SDS011;56610;48.872;2.400;2023-09-30T11:25:58;13.18;;;6.03;;
69417;SDS011;56610;48.872;2.400;2023-09-30T11:28:23;12.93;;;6.40;;
69417;SDS011;56610;48.872;2.400;2023-09-30T11:33:24;9.43;;;5.55;;
69417;SDS011;56610;48.872;2.400;2023-09-30T11:36:03;11.65;;;5.65;;
69417;SDS011;56610;48.872;2.400;2023-09-30T11:38:31;10.52;;;5.63;;
69417;SDS011;56610;48.872;2.400;2023-09-30T11:40:58;9.95;;;6.05;;
69417;SDS011;56610;48.872;2.400;2023-09-30T11:43:29;12.07;;;5.80;;
69417;SDS011;56610;48.872;2.400;2023-09-30T11:48:31;10.98;;;5.80;;
69417;SDS011;56610;48.872;2.400;2023-09-30T11:50:58;9.20;;;5.50;;
69417;SDS011;56610;48.872;2.400;2023-09-30T11:53:28;9.88;;;6.03;;
69417;SDS011;56610;48.872;2.400;2023-09-30T11:55:57;9.43;;;5.85;;
69417;SDS011;56610;48.872;2.400;2023-09-30T11:58:25;8.70;;;4.90;;
69417;SDS011;56610;48.872;2.400;2023-09-30T12:00:55;9.05;;;5.45;;
69417;SDS011;56610;48.872;2.400;2023-09-30T12:03:22;11.60;;;5.57;;
69417;SDS011;56610;48.872;2.400;2023-09-30T12:05:48;9.80;;;5.65;;
69417;SDS011;56610;48.872;2.400;2023-09-30T12:08:14;11.20;;;6.40;;
69417;SDS011;56610;48.872;2.400;2023-09-30T12:10:40;8.80;;;5.90;;
69417;SDS011;56610;48.872;2.400;2023-09-30T12:13:07;9.95;;;6.45;;
69417;SDS011;56610;48.872;2.400;2023-09-30T12:15:32;10.30;;;6.05;;
69417;SDS011;56610;48.872;2.400;2023-09-30T12:17:58;9.82;;;5.82;;
69417;SDS011;56610;48.872;2.400;2023-09-30T12:20:23;8.52;;;6.00;;
69417;SDS011;56610;48.872;2.400;2023-09-30T12:22:50;8.55;;;5.35;;
69417;SDS011;56610;48.872;2.400;2023-09-30T12:25:17;9.35;;;5.35;;
69417;SDS011;56610;48.872;2.400;2023-09-30T12:27:46;12.73;;;6.05;;
69417;SDS011;56610;48.872;2.400;2023-09-30T12:30:12;8.35;;;5.32;;
69417;SDS011;56610;48.872;2.400;2023-09-30T12:32:38;10.27;;;6.88;;
69417;SDS011;56610;48.872;2.400;2023-09-30T12:35:04;8.80;;;5.32;;
69417;SDS011;56610;48.872;2.400;2023-09-30T12:37:30;7.95;;;5.22;;
69417;SDS011;56610;48.872;2.400;2023-09-30T12:39:57;9.20;;;4.80;;
69417;SDS011;56610;48.872;2.400;2023-09-30T12:42:23;9.48;;;5.70;;
69417;SDS011;56610;48.872;2.400;2023-09-30T12:44:49;8.40;;;4.72;;
69417;SDS011;56610;48.872;2.400;2023-09-30T12:47:15;9.98;;;4.88;;
69417;SDS011;56610;48.872;2.400;2023-09-30T12:49:40;6.70;;;4.63;;
69417;SDS011;56610;48.872;2.400;2023-09-30T12:52:06;7.78;;;4.50;;
69417;SDS011;56610;48.872;2.400;2023-09-30T12:54:32;7.45;;;5.15;;
69417;SDS011;56610;48.872;2.400;2023-09-30T12:56:59;7.75;;;4.82;;
69417;SDS011;56610;48.872;2.400;2023-09-30T12:59:24;6.70;;;4.68;;
69417;SDS011;56610;48.872;2.400;2023-09-30T13:01:51;16.80;;;5.68;;
69417;SDS011;56610;48.872;2.400;2023-09-30T13:04:17;8.05;;;4.47;;
69417;SDS011;56610;48.872;2.400;2023-09-30T13:06:43;7.13;;;4.65;;
69417;SDS011;56610;48.872;2.400;2023-09-30T13:09:12;7.90;;;4.93;;
69417;SDS011;56610;48.872;2.400;2023-09-30T13:11:38;7.43;;;4.70;;
69417;SDS011;56610;48.872;2.400;2023-09-30T13:14:04;7.85;;;5.43;;
69417;SDS011;56610;48.872;2.400;2023-09-30T13:16:30;6.95;;;4.40;;
69417;SDS011;56610;48.872;2.400;2023-09-30T13:18:56;10.23;;;4.90;;
69417;SDS011;56610;48.872;2.400;2023-09-30T13:21:21;6.75;;;4.88;;
69417;SDS011;56610;48.872;2.400;2023-09-30T13:23:47;6.55;;;4.93;;
69417;SDS011;56610;48.872;2.400;2023-09-30T13:26:12;7.20;;;5.07;;
69417;SDS011;56610;48.872;2.400;2023-09-30T13:28:38;7.65;;;4.95;;
69417;SDS011;56610;48.872;2.400;2023-09-30T13:31:04;7.63;;;5.18;;
69417;SDS011;56610;48.872;2.400;2023-09-30T13:33:30;8.65;;;5.15;;
69417;SDS011;56610;48.872;2.400;2023-09-30T13:35:55;7.80;;;5.72;;
69417;SDS011;56610;48.872;2.400;2023-09-30T13:38:21;9.75;;;5.80;;
69417;SDS011;56610;48.872;2.400;2023-09-30T13:40:47;7.05;;;5.10;;
69417;SDS011;56610;48.872;2.400;2023-09-30T13:43:12;6.28;;;4.72;;
69417;SDS011;56610;48.872;2.400;2023-09-30T13:45:38;9.68;;;5.15;;
69417;SDS011;56610;48.872;2.400;2023-09-30T13:48:04;7.53;;;5.47;;
69417;SDS011;56610;48.872;2.400;2023-09-30T13:50:29;7.18;;;4.93;;
69417;SDS011;56610;48.872;2.400;2023-09-30T13:52:55;7.45;;;5.38;;
69417;SDS011;56610;48.872;2.400;2023-09-30T13:55:20;14.18;;;5.82;;
69417;SDS011;56610;48.872;2.400;2023-09-30T13:57:46;6.35;;;5.10;;
69417;SDS011;56610;48.872;2.400;2023-09-30T14:00:13;8.07;;;5.40;;
69417;SDS011;56610;48.872;2.400;2023-09-30T14:02:41;6.88;;;5.10;;
69417;SDS011;56610;48.872;2.400;2023-09-30T14:05:08;7.10;;;5.43;;
69417;SDS011;56610;48.872;2.400;2023-09-30T14:07:34;6.80;;;5.32;;
69417;SDS011;56610;48.872;2.400;2023-09-30T14:10:00;7.75;;;5.15;;
69417;SDS011;56610;48.872;2.400;2023-09-30T14:12:26;7.40;;;4.50;;
69417;SDS011;56610;48.872;2.400;2023-09-30T14:14:52;8.55;;;5.32;;
69417;SDS011;56610;48.872;2.400;2023-09-30T14:17:18;7.78;;;5.22;;
69417;SDS011;56610;48.872;2.400;2023-09-30T14:19:43;7.00;;;4.68;;
69417;SDS011;56610;48.872;2.400;2023-09-30T14:22:09;7.88;;;4.90;;
69417;SDS011;56610;48.872;2.400;2023-09-30T14:24:35;8.73;;;5.30;;
69417;SDS011;56610;48.872;2.400;2023-09-30T14:27:03;10.05;;;5.90;;
69417;SDS011;56610;48.872;2.400;2023-09-30T14:29:30;8.32;;;5.13;;
69417;SDS011;56610;48.872;2.400;2023-09-30T14:31:56;8.68;;;5.28;;
69417;SDS011;56610;48.872;2.400;2023-09-30T14:34:22;11.65;;;5.72;;
69417;SDS011;56610;48.872;2.400;2023-09-30T14:36:49;8.98;;;5.38;;
69417;SDS011;56610;48.872;2.400;2023-09-30T14:39:15;6.60;;;5.05;;
69417;SDS011;56610;48.872;2.400;2023-09-30T14:41:44;7.47;;;5.45;;
69417;SDS011;56610;48.872;2.400;2023-09-30T14:44:10;9.45;;;6.10;;
69417;SDS011;56610;48.872;2.400;2023-09-30T14:46:37;7.60;;;5.57;;
69417;SDS011;56610;48.872;2.400;2023-09-30T14:49:04;9.67;;;6.20;;
69417;SDS011;56610;48.872;2.400;2023-09-30T14:51:31;9.75;;;6.00;;
69417;SDS011;56610;48.872;2.400;2023-09-30T14:53:57;10.57;;;5.95;;
69417;SDS011;56610;48.872;2.400;2023-09-30T14:56:23;8.07;;;5.55;;
69417;SDS011;56610;48.872;2.400;2023-09-30T14:58:48;9.73;;;6.20;;
69417;SDS011;56610;48.872;2.400;2023-09-30T15:01:14;7.18;;;5.10;;
69417;SDS011;56610;48.872;2.400;2023-09-30T15:03:39;5.45;;;4.15;;
69417;SDS011;56610;48.872;2.400;2023-09-30T15:06:06;6.50;;;5.13;;
69417;SDS011;56610;48.872;2.400;2023-09-30T15:08:32;9.50;;;5.60;;
69417;SDS011;56610;48.872;2.400;2023-09-30T15:10:58;6.80;;;4.72;;
69417;SDS011;56610;48.872;2.400;2023-09-30T15:13:25;8.27;;;5.50;;
69417;SDS011;56610;48.872;2.400;2023-09-30T15:15:50;9.35;;;5.72;;
69417;SDS011;56610;48.872;2.400;2023-09-30T15:18:16;7.80;;;5.07;;